Time;durP1;ratioP1;P1;durP2;ratioP2;P2;SDS_P1;SDS_P2;PMS_P1;PMS_P2;Temp;Humidity;BMP_temperature;BMP_pressure;BME280_temperature;BME280_humidity;BME280_pressure;Samples;Min_cycle;Max_cycle;Signal;HPM_P1;HPM_P2
2022/04/19 00:01:00;;;;;;;6.15;4.47;;;;;;;;;;4937755;29;20097;-67
2022/04/19 00:03:28;;;;;;;9.15;4.95;;;;;;;;;;4937380;29;20071;-67
2022/04/19 00:05:57;;;;;;;5.70;4.90;;;;;;;;;;4937765;29;20059;-67
2022/04/19 00:08:25;;;;;;;5.65;4.40;;;;;;;;;;4937430;29;20051;-67
2022/04/19 00:10:54;;;;;;;5.88;4.22;;;;;;;;;;4937036;29;20079;-66
2022/04/19 00:13:24;;;;;;;4.70;4.20;;;;;;;;;;4937648;29;20063;-66
2022/04/19 00:15:55;;;;;;;4.65;4.25;;;;;;;;;;4936951;29;20102;-66
2022/04/19 00:18:29;;;;;;;6.30;4.80;;;;;;;;;;4937302;29;20511;-66
2022/04/19 00:20:59;;;;;;;5.75;5.10;;;;;;;;;;4937123;29;20048;-66
2022/04/19 00:23:28;;;;;;;5.90;4.25;;;;;;;;;;4937406;29;20431;-66
2022/04/19 00:25:59;;;;;;;9.82;5.32;;;;;;;;;;4937212;29;20522;-66
2022/04/19 00:28:28;;;;;;;5.57;4.93;;;;;;;;;;4937610;29;20056;-66
2022/04/19 00:30:58;;;;;;;6.45;3.97;;;;;;;;;;4937258;29;20040;-66
2022/04/19 00:33:27;;;;;;;5.00;4.00;;;;;;;;;;4937623;29;20051;-66
2022/04/19 00:35:56;;;;;;;6.15;5.18;;;;;;;;;;4936044;29;20052;-66
2022/04/19 00:38:25;;;;;;;6.50;4.55;;;;;;;;;;4937569;29;20043;-66
2022/04/19 00:40:54;;;;;;;8.77;4.72;;;;;;;;;;4937397;29;20407;-66
2022/04/19 00:43:26;;;;;;;5.03;4.53;;;;;;;;;;4937419;29;20048;-66
2022/04/19 00:45:55;;;;;;;5.88;5.10;;;;;;;;;;4937078;29;20396;-66
2022/04/19 00:48:25;;;;;;;5.30;4.80;;;;;;;;;;4935996;29;20388;-66
2022/04/19 00:50:53;;;;;;;5.60;4.63;;;;;;;;;;4939746;29;20044;-66
2022/04/19 00:53:24;;;;;;;6.82;5.40;;;;;;;;;;4940906;29;20075;-66
2022/04/19 00:56:00;;;;;;;9.10;5.40;;;;;;;;;;4940748;29;20483;-66
2022/04/19 00:58:29;;;;;;;7.43;4.75;;;;;;;;;;4939035;29;20056;-66
2022/04/19 01:00:59;;;;;;;7.80;5.55;;;;;;;;;;4939512;29;20048;-66
2022/04/19 01:03:28;;;;;;;6.18;5.57;;;;;;;;;;4939341;29;20047;-67
2022/04/19 01:06:00;;;;;;;6.78;5.13;;;;;;;;;;4939659;29;20150;-67
2022/04/19 01:08:30;;;;;;;7.03;4.90;;;;;;;;;;4923687;29;20052;-66
2022/04/19 01:14:02;;;;;;;7.05;4.90;;;;;;;;;;4939405;29;20051;-65
2022/04/19 01:16:32;;;;;;;5.47;4.40;;;;;;;;;;4938713;29;20048;-66
2022/04/19 01:19:02;;;;;;;9.20;5.40;;;;;;;;;;4938900;29;20052;-67
2022/04/19 01:21:46;;;;;;;5.43;4.65;;;;;;;;;;4940155;29;20048;-66
2022/04/19 01:24:21;;;;;;;5.63;5.00;;;;;;;;;;4939261;29;20044;-66
2022/04/19 01:26:54;;;;;;;7.28;5.20;;;;;;;;;;4938808;29;20055;-66
2022/04/19 01:29:24;;;;;;;5.68;5.13;;;;;;;;;;4939121;29;20496;-66
2022/04/19 01:31:55;;;;;;;7.70;5.95;;;;;;;;;;4938606;29;20044;-66
2022/04/19 01:34:23;;;;;;;7.68;6.00;;;;;;;;;;4940147;29;20522;-66
2022/04/19 01:36:58;;;;;;;6.93;6.22;;;;;;;;;;4939033;29;20523;-66
2022/04/19 01:42:14;;;;;;;6.70;5.65;;;;;;;;;;4938408;29;20139;-66
2022/04/19 01:44:49;;;;;;;9.73;5.88;;;;;;;;;;4938859;29;20048;-66
2022/04/19 01:47:19;;;;;;;7.78;6.25;;;;;;;;;;4938542;29;20078;-66
2022/04/19 01:49:50;;;;;;;6.55;5.95;;;;;;;;;;4938599;29;20191;-66
2022/04/19 01:52:20;;;;;;;9.35;7.22;;;;;;;;;;4939548;29;20073;-66
2022/04/19 01:54:53;;;;;;;7.05;6.43;;;;;;;;;;4938330;29;20047;-66
2022/04/19 01:57:28;;;;;;;12.02;6.55;;;;;;;;;;4938320;29;20044;-66
2022/04/19 01:59:57;;;;;;;9.05;6.55;;;;;;;;;;4937780;29;20098;-66
2022/04/19 02:02:46;;;;;;;10.25;6.03;;;;;;;;;;4938752;29;20052;-66
2022/04/19 02:05:19;;;;;;;;;;;;;;;;;;4938360;29;20078;-66
2022/04/19 02:07:48;;;;;;;6.30;5.80;;;;;;;;;;4937894;29;20275;-68
2022/04/19 02:10:17;;;;;;;9.68;6.80;;;;;;;;;;4937650;29;20040;-68
2022/04/19 02:12:51;;;;;;;9.10;6.63;;;;;;;;;;4938455;29;20142;-69
2022/04/19 02:15:32;;;;;;;10.98;6.72;;;;;;;;;;4939128;29;20051;-68
2022/04/19 02:18:16;;;;;;;8.10;6.45;;;;;;;;;;4938351;29;20052;-68
2022/04/19 02:20:46;;;;;;;8.88;6.38;;;;;;;;;;4937967;29;20499;-69
2022/04/19 02:23:28;;;;;;;10.60;6.90;;;;;;;;;;4938904;29;20059;-67
2022/04/19 02:25:56;;;;;;;8.18;6.95;;;;;;;;;;4938898;29;20055;-69
2022/04/19 02:28:25;;;;;;;6.60;5.90;;;;;;;;;;4937664;29;20062;-69
2022/04/19 02:31:05;;;;;;;7.32;5.97;;;;;;;;;;4937611;29;20048;-68
2022/04/19 02:33:35;;;;;;;10.43;5.93;;;;;;;;;;4937639;29;20078;-68
2022/04/19 02:36:06;;;;;;;10.32;6.63;;;;;;;;;;4938850;29;20547;-69
2022/04/19 02:38:36;;;;;;;7.32;6.63;;;;;;;;;;4937346;29;20051;-68
2022/04/19 02:41:06;;;;;;;9.40;6.60;;;;;;;;;;4937461;29;20056;-68
2022/04/19 02:43:35;;;;;;;7.95;6.18;;;;;;;;;;4937294;29;20126;-68
2022/04/19 02:46:04;;;;;;;7.07;6.32;;;;;;;;;;4933744;29;20048;-67
2022/04/19 02:48:39;;;;;;;8.82;6.95;;;;;;;;;;4924296;29;20079;-67
2022/04/19 02:51:09;;;;;;;8.32;5.55;;;;;;;;;;4932062;29;20504;-68
2022/04/19 02:53:38;;;;;;;8.25;6.57;;;;;;;;;;4931505;29;20106;-67
2022/04/19 02:56:07;;;;;;;7.80;6.35;;;;;;;;;;4925114;29;20221;-68
2022/04/19 02:58:34;;;;;;;7.57;6.03;;;;;;;;;;4931035;29;20079;-67
2022/04/19 03:01:03;;;;;;;7.60;6.65;;;;;;;;;;4923654;29;20071;-68
2022/04/19 03:03:32;;;;;;;7.95;7.03;;;;;;;;;;4931357;29;20380;-68
2022/04/19 03:06:00;;;;;;;7.88;6.38;;;;;;;;;;4932740;29;20459;-68
2022/04/19 03:08:33;;;;;;;9.50;6.32;;;;;;;;;;4925828;29;20086;-69
2022/04/19 03:11:02;;;;;;;12.88;7.53;;;;;;;;;;4926330;29;20514;-67
2022/04/19 03:13:32;;;;;;;14.02;7.25;;;;;;;;;;4928650;29;20044;-68
2022/04/19 03:16:02;;;;;;;10.27;7.63;;;;;;;;;;4922948;29;20072;-67
2022/04/19 03:18:32;;;;;;;14.35;7.45;;;;;;;;;;4933931;29;20456;-68
2022/04/19 03:21:02;;;;;;;7.85;6.70;;;;;;;;;;4927515;29;20124;-68
2022/04/19 03:29:11;;;;;;;12.25;7.20;;;;;;;;;;4937096;29;20063;-67
2022/04/19 03:31:40;;;;;;;7.68;6.95;;;;;;;;;;4936218;29;20063;-67
2022/04/19 03:34:08;;;;;;;8.88;6.68;;;;;;;;;;4936824;29;20047;-67
2022/04/19 03:36:38;;;;;;;11.35;7.68;;;;;;;;;;4936173;29;20059;-67
2022/04/19 03:39:05;;;;;;;8.15;6.20;;;;;;;;;;4936749;29;20150;-67
2022/04/19 03:41:35;;;;;;;8.00;6.68;;;;;;;;;;4937960;29;20059;-67
2022/04/19 03:44:08;;;;;;;12.80;7.53;;;;;;;;;;4936783;29;20455;-67
2022/04/19 03:47:07;;;;;;;8.32;6.85;;;;;;;;;;4936667;29;20491;-67
2022/04/19 03:49:27;;;;;;;11.07;6.93;;;;;;;;;;4936383;29;20058;-67
2022/04/19 03:51:56;;;;;;;7.68;6.90;;;;;;;;;;4937509;29;20056;-67
2022/04/19 03:54:26;;;;;;;8.80;7.95;;;;;;;;;;4936464;29;20056;-67
2022/04/19 03:56:54;;;;;;;10.13;7.13;;;;;;;;;;4937851;29;20044;-67
2022/04/19 03:59:23;;;;;;;13.80;7.63;;;;;;;;;;4936214;29;20052;-67
2022/04/19 04:01:53;;;;;;;10.38;6.43;;;;;;;;;;4936667;29;20044;-66
2022/04/19 04:04:22;;;;;;;8.65;7.85;;;;;;;;;;4937404;29;20043;-66
2022/04/19 04:06:50;;;;;;;14.77;7.68;;;;;;;;;;4936408;29;20099;-67
2022/04/19 04:09:20;;;;;;;11.50;7.32;;;;;;;;;;4935994;29;20044;-65
2022/04/19 04:11:52;;;;;;;6.82;6.13;;;;;;;;;;4936218;29;20482;-68
2022/04/19 04:14:21;;;;;;;11.82;7.20;;;;;;;;;;4936351;29;20052;-67
2022/04/19 04:16:49;;;;;;;8.50;7.07;;;;;;;;;;4936013;29;20052;-67
2022/04/19 04:19:19;;;;;;;8.93;6.55;;;;;;;;;;4936346;29;20166;-68
2022/04/19 04:21:49;;;;;;;7.65;6.85;;;;;;;;;;4936101;29;20059;-67
2022/04/19 04:24:18;;;;;;;8.60;7.65;;;;;;;;;;4939030;29;20067;-67
2022/04/19 04:26:47;;;;;;;9.45;6.53;;;;;;;;;;4939534;29;20051;-68
2022/04/19 04:29:20;;;;;;;10.45;8.48;;;;;;;;;;4939942;29;20047;-68
2022/04/19 04:31:51;;;;;;;8.13;7.05;;;;;;;;;;4940103;29;20500;-67
2022/04/19 04:34:19;;;;;;;12.13;8.18;;;;;;;;;;4940092;29;20095;-67
2022/04/19 04:36:49;;;;;;;8.68;7.22;;;;;;;;;;4939469;29;20075;-67
2022/04/19 04:39:21;;;;;;;11.10;8.52;;;;;;;;;;4939935;29;20506;-67
2022/04/19 04:42:09;;;;;;;11.63;9.50;;;;;;;;;;4940681;29;20172;-67
2022/04/19 04:44:37;;;;;;;14.60;8.98;;;;;;;;;;4939714;29;20043;-67
2022/04/19 04:49:55;;;;;;;10.57;9.38;;;;;;;;;;4934024;29;20052;-67
2022/04/19 04:52:25;;;;;;;10.18;9.20;;;;;;;;;;4939772;29;20143;-68
2022/04/19 04:54:57;;;;;;;9.38;8.48;;;;;;;;;;4939209;29;20054;-68
2022/04/19 04:57:29;;;;;;;9.35;8.35;;;;;;;;;;4939191;29;20055;-67
2022/04/19 04:59:58;;;;;;;9.73;8.73;;;;;;;;;;4934487;29;20058;-67
2022/04/19 05:02:44;;;;;;;12.93;8.55;;;;;;;;;;4943192;29;20532;-68
2022/04/19 05:05:13;;;;;;;12.77;9.95;;;;;;;;;;4926166;29;20048;-68
2022/04/19 05:07:42;;;;;;;10.82;8.68;;;;;;;;;;4931685;29;20103;-68
2022/04/19 05:10:14;;;;;;;10.65;9.55;;;;;;;;;;4926692;29;20074;-68
2022/04/19 05:12:43;;;;;;;11.55;10.35;;;;;;;;;;4930857;29;20134;-65
2022/04/19 05:15:20;;;;;;;13.30;9.82;;;;;;;;;;4930427;29;20048;-65
2022/04/19 05:17:50;;;;;;;14.20;10.27;;;;;;;;;;4927873;29;20063;-65
2022/04/19 05:20:20;;;;;;;15.68;9.88;;;;;;;;;;4928491;29;20043;-65
2022/04/19 05:22:49;;;;;;;11.45;9.43;;;;;;;;;;4933607;29;20055;-65
2022/04/19 05:25:18;;;;;;;10.63;9.52;;;;;;;;;;4935327;29;20056;-66
2022/04/19 05:27:48;;;;;;;14.20;9.65;;;;;;;;;;4945601;29;20067;-68
2022/04/19 05:30:18;;;;;;;14.68;10.30;;;;;;;;;;4926091;29;20061;-67
2022/04/19 05:32:48;;;;;;;14.25;8.02;;;;;;;;;;4933602;29;20052;-65
2022/04/19 05:35:17;;;;;;;17.05;8.90;;;;;;;;;;4928691;29;20138;-68
2022/04/19 05:37:46;;;;;;;14.07;9.38;;;;;;;;;;4934353;29;20488;-67
2022/04/19 05:40:16;;;;;;;13.70;8.73;;;;;;;;;;4928279;29;20059;-67
2022/04/19 05:42:44;;;;;;;11.40;8.60;;;;;;;;;;4931209;29;20130;-67
2022/04/19 05:45:13;;;;;;;10.00;8.00;;;;;;;;;;4930205;29;20063;-67
2022/04/19 05:47:44;;;;;;;9.88;8.68;;;;;;;;;;4937393;29;20044;-67
2022/04/19 05:50:12;;;;;;;11.93;8.77;;;;;;;;;;4937778;29;20062;-71
2022/04/19 05:52:42;;;;;;;10.52;7.75;;;;;;;;;;4937626;29;20047;-68
2022/04/19 05:55:15;;;;;;;10.30;8.95;;;;;;;;;;4926569;29;20079;-68
2022/04/19 05:57:44;;;;;;;12.52;7.97;;;;;;;;;;4925684;29;20076;-67
2022/04/19 06:00:15;;;;;;;9.70;7.30;;;;;;;;;;4927173;29;20691;-67
2022/04/19 06:05:40;;;;;;;8.73;7.93;;;;;;;;;;4935536;29;20470;-67
2022/04/19 06:08:09;;;;;;;9.73;7.10;;;;;;;;;;4936301;29;20146;-68
2022/04/19 06:10:40;;;;;;;9.85;7.78;;;;;;;;;;4935857;29;20059;-66
2022/04/19 06:13:08;;;;;;;12.45;7.60;;;;;;;;;;4943493;29;20042;-65
2022/04/19 06:15:37;;;;;;;8.50;6.55;;;;;;;;;;4947584;29;20526;-65
2022/04/19 06:18:08;;;;;;;10.32;6.57;;;;;;;;;;4924165;29;20051;-66
2022/04/19 06:20:53;;;;;;;9.80;6.43;;;;;;;;;;4942221;29;20056;-67
2022/04/19 06:23:25;;;;;;;7.80;7.10;;;;;;;;;;4919914;29;20305;-74
2022/04/19 06:25:54;;;;;;;6.35;5.60;;;;;;;;;;4931417;29;20114;-64
2022/04/19 06:28:27;;;;;;;9.43;6.72;;;;;;;;;;4927680;29;20056;-65
2022/04/19 06:31:14;;;;;;;8.25;6.70;;;;;;;;;;4932276;29;20047;-64
2022/04/19 06:33:47;;;;;;;8.43;6.53;;;;;;;;;;4931657;29;20039;-65
2022/04/19 06:36:18;;;;;;;7.70;6.07;;;;;;;;;;4927813;29;20319;-64
2022/04/19 06:38:47;;;;;;;8.35;6.15;;;;;;;;;;4928114;29;20106;-64
2022/04/19 06:41:16;;;;;;;11.00;7.32;;;;;;;;;;4944608;29;20067;-64
2022/04/19 06:43:46;;;;;;;8.55;5.50;;;;;;;;;;4925562;29;20527;-64
2022/04/19 06:46:20;;;;;;;6.57;5.88;;;;;;;;;;4930880;29;20051;-64
2022/04/19 06:49:02;;;;;;;6.60;5.90;;;;;;;;;;4924753;29;20048;-64
2022/04/19 06:51:32;;;;;;;8.32;4.88;;;;;;;;;;4926500;29;20097;-65
2022/04/19 06:54:07;;;;;;;9.15;5.95;;;;;;;;;;4929047;29;20123;-65
2022/04/19 06:56:48;;;;;;;6.47;5.38;;;;;;;;;;4933615;29;20052;-64
2022/04/19 06:59:18;;;;;;;11.65;5.25;;;;;;;;;;4928287;29;20491;-64
2022/04/19 07:01:46;;;;;;;6.63;5.68;;;;;;;;;;4928138;29;20048;-64
2022/04/19 07:04:41;;;;;;;10.70;5.23;;;;;;;;;;4918714;29;20059;-64
2022/04/19 07:07:12;;;;;;;9.95;6.22;;;;;;;;;;4927688;29;20107;-64
2022/04/19 07:09:45;;;;;;;7.35;5.10;;;;;;;;;;4929289;29;20052;-64
2022/04/19 07:12:14;;;;;;;5.97;4.70;;;;;;;;;;4933362;29;20052;-64
2022/04/19 07:15:12;;;;;;;8.20;5.20;;;;;;;;;;4925111;29;20116;-62
2022/04/19 07:17:46;;;;;;;6.68;5.22;;;;;;;;;;4925415;29;20134;-64
2022/04/19 07:28:43;;;;;;;10.05;5.05;;;;;;;;;;4927695;29;20496;-63
2022/04/19 07:31:13;;;;;;;5.80;5.22;;;;;;;;;;4932486;29;20129;-63
2022/04/19 07:33:44;;;;;;;9.13;5.93;;;;;;;;;;4934844;29;20452;-66
2022/04/19 07:36:13;;;;;;;5.40;4.90;;;;;;;;;;4931821;29;20047;-65
2022/04/19 07:38:46;;;;;;;10.60;4.90;;;;;;;;;;4930581;29;20525;-64
2022/04/19 07:41:27;;;;;;;6.85;5.07;;;;;;;;;;4930194;29;20306;-65
2022/04/19 07:43:55;;;;;;;7.40;5.18;;;;;;;;;;4927898;29;20055;-63
2022/04/19 07:46:25;;;;;;;6.47;5.03;;;;;;;;;;4927112;29;20062;-63
2022/04/19 07:48:53;;;;;;;6.10;4.78;;;;;;;;;;4942880;29;20036;-63
2022/04/19 07:51:21;;;;;;;8.38;6.13;;;;;;;;;;4925027;29;20459;-63
2022/04/19 07:53:49;;;;;;;5.78;5.03;;;;;;;;;;4928436;29;20052;-64
2022/04/19 07:56:19;;;;;;;5.95;5.35;;;;;;;;;;4925982;29;20056;-64
2022/04/19 07:58:49;;;;;;;8.68;5.18;;;;;;;;;;4923217;29;20583;-64
2022/04/19 08:01:19;;;;;;;11.48;5.20;;;;;;;;;;4931326;29;20420;-64
2022/04/19 08:03:48;;;;;;;7.93;5.10;;;;;;;;;;4939193;29;20055;-64
2022/04/19 08:06:16;;;;;;;6.15;5.10;;;;;;;;;;4929638;29;20050;-64
2022/04/19 08:08:45;;;;;;;11.07;5.97;;;;;;;;;;4928778;29;20159;-64
2022/04/19 08:11:14;;;;;;;6.20;4.60;;;;;;;;;;4926083;29;20200;-64
2022/04/19 08:13:45;;;;;;;6.28;4.38;;;;;;;;;;4921088;29;20048;-64
2022/04/19 08:16:15;;;;;;;11.40;5.07;;;;;;;;;;4929027;29;20048;-65
2022/04/19 08:18:45;;;;;;;4.93;4.43;;;;;;;;;;4929988;29;20044;-62
2022/04/19 08:21:15;;;;;;;9.82;7.05;;;;;;;;;;4939714;29;20078;-64
2022/04/19 08:23:45;;;;;;;8.57;5.55;;;;;;;;;;4925688;29;20047;-62
2022/04/19 08:26:18;;;;;;;6.18;5.00;;;;;;;;;;4928737;29;20047;-62
2022/04/19 08:28:47;;;;;;;7.68;5.00;;;;;;;;;;4934552;29;20052;-61
2022/04/19 08:31:17;;;;;;;5.32;4.82;;;;;;;;;;4936865;29;20052;-61
2022/04/19 08:33:47;;;;;;;6.68;6.07;;;;;;;;;;4935569;29;20043;-62
2022/04/19 08:36:19;;;;;;;6.57;5.15;;;;;;;;;;4920843;29;20048;-62
2022/04/19 08:38:50;;;;;;;6.65;5.68;;;;;;;;;;4924864;29;20056;-62
2022/04/19 08:41:22;;;;;;;8.23;6.20;;;;;;;;;;4928091;29;20640;-63
2022/04/19 08:43:53;;;;;;;6.70;5.65;;;;;;;;;;4933560;29;20048;-63
2022/04/19 08:46:23;;;;;;;5.25;4.75;;;;;;;;;;4934737;29;20040;-60
2022/04/19 08:48:53;;;;;;;10.43;5.10;;;;;;;;;;4934996;29;20114;-62
2022/04/19 08:51:21;;;;;;;6.32;5.15;;;;;;;;;;4936199;29;20051;-60
2022/04/19 08:59:31;;;;;;;6.05;5.38;;;;;;;;;;4936149;29;20056;-61
2022/04/19 09:02:00;;;;;;;8.77;5.45;;;;;;;;;;4936627;29;20054;-61
2022/04/19 09:04:31;;;;;;;6.47;5.68;;;;;;;;;;4936622;29;20107;-61
2022/04/19 09:07:00;;;;;;;7.25;5.43;;;;;;;;;;4936356;29;20135;-61
2022/04/19 09:09:34;;;;;;;5.60;5.10;;;;;;;;;;4917764;29;20044;-61
2022/04/19 09:12:12;;;;;;;6.72;6.05;;;;;;;;;;4920266;29;20048;-62
2022/04/19 09:15:03;;;;;;;6.18;5.57;;;;;;;;;;4921003;29;20056;-62
2022/04/19 09:17:35;;;;;;;7.15;5.03;;;;;;;;;;4920438;29;20056;-61
2022/04/19 09:20:19;;;;;;;6.65;5.43;;;;;;;;;;4931703;29;20198;-62
2022/04/19 09:22:49;;;;;;;6.60;6.00;;;;;;;;;;4958548;29;20044;-61
2022/04/19 09:25:24;;;;;;;6.07;5.28;;;;;;;;;;4957502;29;20054;-61
2022/04/19 09:27:55;;;;;;;6.07;5.47;;;;;;;;;;4952227;28;20044;-61
2022/04/19 09:30:27;;;;;;;8.45;6.57;;;;;;;;;;4939774;29;20507;-61
2022/04/19 09:33:11;;;;;;;8.30;6.03;;;;;;;;;;4931280;29;20052;-61
2022/04/19 09:35:49;;;;;;;20.20;7.00;;;;;;;;;;4939732;29;20086;-61
2022/04/19 09:38:32;;;;;;;7.85;5.25;;;;;;;;;;4936950;29;20055;-61
2022/04/19 09:41:02;;;;;;;8.05;6.03;;;;;;;;;;4939019;29;20068;-60
2022/04/19 09:44:10;;;;;;;6.25;5.45;;;;;;;;;;4937710;29;20056;-61
2022/04/19 09:46:41;;;;;;;8.13;6.18;;;;;;;;;;4939632;29;20102;-61
2022/04/19 09:49:10;;;;;;;5.60;5.10;;;;;;;;;;4936434;29;20051;-61
2022/04/19 09:51:40;;;;;;;7.47;6.65;;;;;;;;;;4936123;29;20149;-61
2022/04/19 09:54:21;;;;;;;6.75;5.07;;;;;;;;;;4935708;29;20099;-61
2022/04/19 09:56:50;;;;;;;9.20;5.90;;;;;;;;;;4938452;29;20484;-61
2022/04/19 09:59:24;;;;;;;9.00;5.03;;;;;;;;;;4936382;29;20097;-61
2022/04/19 10:10:16;;;;;;;6.78;4.75;;;;;;;;;;4939069;29;20102;-61
2022/04/19 10:12:44;;;;;;;4.63;4.22;;;;;;;;;;4938962;29;20059;-61
2022/04/19 10:15:14;;;;;;;8.48;5.18;;;;;;;;;;4937633;29;20048;-60
2022/04/19 10:17:43;;;;;;;5.63;4.80;;;;;;;;;;4938438;29;20043;-60
2022/04/19 10:20:14;;;;;;;5.22;4.72;;;;;;;;;;4937737;29;20043;-61
2022/04/19 10:22:48;;;;;;;5.40;4.80;;;;;;;;;;4937907;29;20083;-61
2022/04/19 10:25:18;;;;;;;7.10;4.32;;;;;;;;;;4938564;29;20138;-61
2022/04/19 10:27:49;;;;;;;5.70;3.95;;;;;;;;;;4932292;29;20396;-61
2022/04/19 10:30:19;;;;;;;7.05;4.20;;;;;;;;;;4919972;29;20135;-61
2022/04/19 10:32:56;;;;;;;7.45;4.47;;;;;;;;;;4928649;29;20052;-61
2022/04/19 10:35:25;;;;;;;5.13;4.70;;;;;;;;;;4938660;29;20043;-60
2022/04/19 10:38:20;;;;;;;4.68;4.22;;;;;;;;;;4937245;29;20130;-60
2022/04/19 10:40:50;;;;;;;4.82;4.25;;;;;;;;;;4938276;29;20139;-60
2022/04/19 10:43:22;;;;;;;4.85;4.45;;;;;;;;;;4938200;29;20062;-61
2022/04/19 10:45:51;;;;;;;4.97;4.32;;;;;;;;;;4938358;29;20054;-60
2022/04/19 10:48:20;;;;;;;4.10;3.70;;;;;;;;;;4937941;29;20492;-61
2022/04/19 10:50:51;;;;;;;4.32;3.92;;;;;;;;;;4937945;29;20485;-61
2022/04/19 10:53:33;;;;;;;4.53;3.80;;;;;;;;;;4937864;29;20052;-61
2022/04/19 10:56:07;;;;;;;3.53;3.20;;;;;;;;;;4937707;29;20056;-61
2022/04/19 10:58:41;;;;;;;5.13;4.28;;;;;;;;;;4937761;29;20139;-61
2022/04/19 11:01:31;;;;;;;3.75;3.42;;;;;;;;;;4937941;29;20058;-61
2022/04/19 11:04:11;;;;;;;6.43;3.97;;;;;;;;;;4918655;29;20135;-61
2022/04/19 11:06:40;;;;;;;4.07;2.85;;;;;;;;;;4918444;29;20159;-61
2022/04/19 11:09:16;;;;;;;5.30;3.60;;;;;;;;;;4918937;29;20492;-61
2022/04/19 11:11:58;;;;;;;5.75;3.30;;;;;;;;;;4918600;29;20079;-61
2022/04/19 11:14:36;;;;;;;4.60;2.85;;;;;;;;;;4915489;29;20526;-61
2022/04/19 11:17:45;;;;;;;3.88;3.38;;;;;;;;;;4917648;29;20067;-61
2022/04/19 11:20:16;;;;;;;4.97;2.67;;;;;;;;;;4918674;29;20516;-61
2022/04/19 11:22:46;;;;;;;3.63;3.33;;;;;;;;;;4932141;29;20518;-61
2022/04/19 11:25:15;;;;;;;5.03;3.33;;;;;;;;;;4937435;29;20102;-61
2022/04/19 11:27:54;;;;;;;6.13;3.15;;;;;;;;;;4937359;29;20609;-61
2022/04/19 11:30:25;;;;;;;5.60;3.90;;;;;;;;;;4937934;29;20058;-61
2022/04/19 11:32:58;;;;;;;9.33;3.93;;;;;;;;;;4921775;29;20051;-61
2022/04/19 11:35:32;;;;;;;4.45;2.80;;;;;;;;;;4926017;29;20055;-61
2022/04/19 11:38:23;;;;;;;6.20;4.20;;;;;;;;;;4929669;29;20051;-62
2022/04/19 11:46:47;;;;;;;7.07;4.55;;;;;;;;;;4937469;29;20058;-61
2022/04/19 11:49:34;;;;;;;5.25;4.75;;;;;;;;;;4937662;29;20139;-62
2022/04/19 11:52:13;;;;;;;5.25;4.80;;;;;;;;;;4937531;29;20059;-62
2022/04/19 11:54:43;;;;;;;5.03;4.18;;;;;;;;;;4936620;29;20476;-61
2022/04/19 11:57:13;;;;;;;5.90;4.90;;;;;;;;;;4937275;29;20047;-61
2022/04/19 11:59:43;;;;;;;4.20;3.83;;;;;;;;;;4937620;29;20099;-61
2022/04/19 12:02:22;;;;;;;5.57;4.15;;;;;;;;;;4937173;29;20051;-61
2022/04/19 12:04:53;;;;;;;5.75;4.82;;;;;;;;;;4936278;29;20138;-61
2022/04/19 12:07:24;;;;;;;5.97;5.10;;;;;;;;;;4936656;29;20102;-62
2022/04/19 12:09:54;;;;;;;8.82;5.00;;;;;;;;;;4936853;29;20078;-61
2022/04/19 12:12:23;;;;;;;5.57;5.05;;;;;;;;;;4936042;29;20127;-61
2022/04/19 12:15:06;;;;;;;5.95;5.35;;;;;;;;;;4937151;29;20523;-61
2022/04/19 12:17:44;;;;;;;8.65;5.30;;;;;;;;;;4936800;29;20412;-61
2022/04/19 12:20:14;;;;;;;6.68;5.93;;;;;;;;;;4937100;29;20131;-61
2022/04/19 12:22:47;;;;;;;5.63;5.05;;;;;;;;;;4936800;29;20079;-61
2022/04/19 12:25:22;;;;;;;6.30;5.22;;;;;;;;;;4937173;29;20044;-61
2022/04/19 12:27:53;;;;;;;6.90;5.03;;;;;;;;;;4936966;29;20116;-62
2022/04/19 12:30:29;;;;;;;7.35;5.57;;;;;;;;;;4936524;29;20069;-62
2022/04/19 12:32:59;;;;;;;6.57;5.82;;;;;;;;;;4936806;29;20048;-62
2022/04/19 12:35:34;;;;;;;5.53;5.13;;;;;;;;;;4937326;29;20063;-62
2022/04/19 12:38:16;;;;;;;5.90;4.72;;;;;;;;;;4937294;29;20056;-62
2022/04/19 12:40:44;;;;;;;7.95;5.55;;;;;;;;;;4936517;29;20059;-61
2022/04/19 12:43:15;;;;;;;7.03;5.57;;;;;;;;;;4936965;29;20059;-61
2022/04/19 12:45:46;;;;;;;6.65;5.95;;;;;;;;;;4940164;29;20047;-61
2022/04/19 12:48:23;;;;;;;6.00;5.50;;;;;;;;;;4940170;29;20554;-61
2022/04/19 12:51:01;;;;;;;6.97;5.50;;;;;;;;;;4940798;29;20559;-61
2022/04/19 12:53:33;;;;;;;6.63;5.90;;;;;;;;;;4939713;29;20147;-61
2022/04/19 12:56:17;;;;;;;10.10;5.90;;;;;;;;;;4940756;29;20115;-61
2022/04/19 12:58:46;;;;;;;6.32;5.82;;;;;;;;;;4940402;29;20127;-61
2022/04/19 13:01:15;;;;;;;7.65;5.63;;;;;;;;;;4940224;29;20134;-61
2022/04/19 13:03:44;;;;;;;9.32;6.47;;;;;;;;;;4940105;29;20124;-61
2022/04/19 13:14:40;;;;;;;9.70;5.40;;;;;;;;;;4940363;29;20487;-61
2022/04/19 13:17:16;;;;;;;10.20;6.97;;;;;;;;;;4939822;29;20050;-61
2022/04/19 13:19:47;;;;;;;8.65;5.75;;;;;;;;;;4939730;29;20055;-61
2022/04/19 13:22:16;;;;;;;6.88;5.80;;;;;;;;;;4940120;29;20059;-61
2022/04/19 13:24:44;;;;;;;9.30;5.80;;;;;;;;;;4939829;29;20056;-61
2022/04/19 13:27:14;;;;;;;8.05;6.03;;;;;;;;;;4939727;29;20523;-61
2022/04/19 13:29:43;;;;;;;7.55;5.88;;;;;;;;;;4939787;29;20056;-61
2022/04/19 13:32:13;;;;;;;5.82;5.32;;;;;;;;;;4939518;29;20052;-62
2022/04/19 13:34:46;;;;;;;6.67;5.97;;;;;;;;;;4939738;29;20055;-61
2022/04/19 13:37:16;;;;;;;7.32;6.63;;;;;;;;;;4939412;29;20378;-61
2022/04/19 13:39:46;;;;;;;6.18;5.18;;;;;;;;;;4939198;29;20455;-61
2022/04/19 13:42:17;;;;;;;8.93;6.72;;;;;;;;;;4939527;29;20055;-61
2022/04/19 13:44:50;;;;;;;6.80;6.13;;;;;;;;;;4939017;29;20056;-61
2022/04/19 13:47:19;;;;;;;8.65;5.72;;;;;;;;;;4939886;29;20088;-61
2022/04/19 13:49:49;;;;;;;9.65;6.47;;;;;;;;;;4939181;29;20048;-61
2022/04/19 13:52:19;;;;;;;7.03;6.22;;;;;;;;;;4939219;29;20057;-62
2022/04/19 13:54:48;;;;;;;6.40;5.90;;;;;;;;;;4939535;29;20147;-62
2022/04/19 13:57:17;;;;;;;6.95;6.28;;;;;;;;;;4938320;29;20067;-63
2022/04/19 13:59:47;;;;;;;6.82;6.22;;;;;;;;;;4939505;29;20056;-62
2022/04/19 14:02:17;;;;;;;10.35;7.22;;;;;;;;;;4938849;29;20058;-62
2022/04/19 14:04:46;;;;;;;11.82;6.70;;;;;;;;;;4939419;29;20051;-63
2022/04/19 14:07:16;;;;;;;7.78;6.15;;;;;;;;;;4938324;29;20079;-63
2022/04/19 14:09:45;;;;;;;7.55;6.00;;;;;;;;;;4939404;29;20484;-62
2022/04/19 14:12:15;;;;;;;6.70;6.07;;;;;;;;;;4938866;29;20465;-62
2022/04/19 14:14:47;;;;;;;13.82;6.28;;;;;;;;;;4938986;29;20119;-62
2022/04/19 14:17:16;;;;;;;7.90;7.07;;;;;;;;;;4938287;29;20467;-62
2022/04/19 14:19:45;;;;;;;11.10;7.55;;;;;;;;;;4938796;29;20052;-62
2022/04/19 14:22:18;;;;;;;8.13;7.03;;;;;;;;;;4937592;29;20071;-63
2022/04/19 14:24:45;;;;;;;12.43;7.32;;;;;;;;;;4938827;29;20052;-63
2022/04/19 14:27:15;;;;;;;7.88;7.07;;;;;;;;;;4938901;29;20043;-62
2022/04/19 14:35:21;;;;;;;7.85;7.15;;;;;;;;;;4936763;29;20150;-62
2022/04/19 14:37:51;;;;;;;8.07;7.28;;;;;;;;;;4937310;29;20052;-62
2022/04/19 14:40:20;;;;;;;8.70;7.25;;;;;;;;;;4937904;29;20074;-62
2022/04/19 14:42:50;;;;;;;9.52;7.28;;;;;;;;;;4938740;29;20056;-62
2022/04/19 14:45:18;;;;;;;7.65;6.93;;;;;;;;;;4938276;29;20393;-62
2022/04/19 14:47:47;;;;;;;8.55;7.20;;;;;;;;;;4938394;29;20066;-62
2022/04/19 14:50:17;;;;;;;8.77;7.88;;;;;;;;;;4938210;29;20393;-62
2022/04/19 14:52:49;;;;;;;9.85;7.15;;;;;;;;;;4938919;29;20075;-66
2022/04/19 14:55:21;;;;;;;11.82;9.00;;;;;;;;;;4938690;29;20059;-66
2022/04/19 14:57:51;;;;;;;8.65;7.13;;;;;;;;;;4938041;29;20094;-66
2022/04/19 15:00:21;;;;;;;11.05;8.18;;;;;;;;;;4938497;29;20113;-66
2022/04/19 15:02:49;;;;;;;8.43;7.72;;;;;;;;;;4937637;29;20048;-66
2022/04/19 15:05:19;;;;;;;8.80;8.02;;;;;;;;;;4938787;29;20047;-66
2022/04/19 15:07:47;;;;;;;9.18;8.27;;;;;;;;;;4937021;29;20063;-67
2022/04/19 15:10:16;;;;;;;8.93;7.72;;;;;;;;;;4935041;29;20050;-67
2022/04/19 15:13:05;;;;;;;14.27;9.20;;;;;;;;;;4938143;29;20115;-66
2022/04/19 15:15:35;;;;;;;12.20;8.38;;;;;;;;;;4937763;29;20071;-66
2022/04/19 15:18:05;;;;;;;9.85;8.55;;;;;;;;;;4938185;29;20060;-66
2022/04/19 15:20:34;;;;;;;9.00;8.10;;;;;;;;;;4938393;29;20060;-66
2022/04/19 15:23:03;;;;;;;11.85;8.10;;;;;;;;;;4937594;29;20111;-66
2022/04/19 15:25:32;;;;;;;8.00;7.30;;;;;;;;;;4937925;29;20044;-65
2022/04/19 15:28:04;;;;;;;10.52;8.40;;;;;;;;;;4937907;29;20056;-66
2022/04/19 15:30:33;;;;;;;9.98;7.93;;;;;;;;;;4937704;29;20456;-65
2022/04/19 15:33:02;;;;;;;8.70;7.80;;;;;;;;;;4937625;29;20056;-65
2022/04/19 15:35:31;;;;;;;7.90;7.18;;;;;;;;;;4937594;29;20054;-66
2022/04/19 15:37:59;;;;;;;9.52;8.60;;;;;;;;;;4938109;29;20122;-67
2022/04/19 15:40:30;;;;;;;15.52;9.45;;;;;;;;;;4937647;29;20064;-66
2022/04/19 15:42:59;;;;;;;10.50;9.55;;;;;;;;;;4938252;29;20048;-66
2022/04/19 15:45:29;;;;;;;11.82;8.77;;;;;;;;;;4936898;29;20055;-66
2022/04/19 15:48:06;;;;;;;9.80;8.90;;;;;;;;;;4937141;29;20050;-66
2022/04/19 15:50:35;;;;;;;12.55;9.85;;;;;;;;;;4917199;29;20054;-66
2022/04/19 15:53:06;;;;;;;10.90;9.80;;;;;;;;;;4930422;29;20130;-66
2022/04/19 15:55:35;;;;;;;13.05;10.38;;;;;;;;;;4936850;29;20082;-66
2022/04/19 15:58:05;;;;;;;11.25;10.05;;;;;;;;;;4932300;29;20052;-69
2022/04/19 16:00:37;;;;;;;13.20;9.95;;;;;;;;;;4933354;29;20063;-67
2022/04/19 16:03:06;;;;;;;14.85;9.93;;;;;;;;;;4936921;29;20134;-66
2022/04/19 16:05:35;;;;;;;12.63;10.05;;;;;;;;;;4937155;29;20051;-66
2022/04/19 16:08:04;;;;;;;10.93;9.90;;;;;;;;;;4937508;29;20399;-67